createdAt,value
2019-04-04T00:04:33.921Z,25.20
2019-04-04T00:09:41.630Z,23.33
2019-04-04T00:14:48.678Z,22.13
2019-04-04T00:19:56.006Z,24.73
2019-04-04T00:25:04.070Z,32.00
2019-04-04T00:30:11.485Z,20.20
2019-04-04T00:35:18.633Z,28.38
2019-04-04T00:40:25.835Z,26.13
2019-04-04T00:45:32.930Z,26.73
2019-04-04T00:50:39.914Z,26.53
2019-04-04T00:55:48.059Z,32.30
2019-04-04T01:00:55.506Z,25.03
2019-04-04T01:06:03.498Z,23.90
2019-04-04T01:11:11.066Z,28.27
2019-04-04T01:16:18.259Z,29.73
2019-04-04T01:21:25.517Z,40.73
2019-04-04T01:26:34.885Z,22.57
2019-04-04T01:31:41.637Z,32.43
2019-04-04T01:36:48.872Z,25.27
2019-04-04T01:41:56.202Z,30.23
2019-04-04T01:47:03.400Z,32.57
2019-04-04T01:52:11.072Z,41.60
2019-04-04T01:57:18.359Z,38.10
2019-04-04T02:02:27.143Z,41.23
2019-04-04T02:07:34.255Z,55.37
2019-04-04T02:12:42.249Z,49.50
2019-04-04T02:17:52.662Z,76.50
2019-04-04T02:23:01.241Z,47.73
2019-04-04T02:28:08.942Z,66.20
2019-04-04T02:33:17.721Z,62.43
2019-04-04T02:38:28.002Z,30.57
2019-04-04T02:43:33.634Z,52.43
2019-04-04T02:48:40.696Z,45.97
2019-04-04T02:53:51.903Z,36.37
2019-04-04T02:58:56.794Z,59.07
2019-04-04T03:04:03.882Z,53.30
2019-04-04T03:09:10.963Z,81.27
2019-04-04T03:14:18.156Z,62.43
2019-04-04T03:19:25.235Z,59.43
2019-04-04T03:24:32.300Z,73.97
2019-04-04T03:29:39.713Z,51.47
2019-04-04T03:34:49.682Z,71.70
2019-04-04T03:39:55.640Z,168.57
2019-04-04T03:45:02.810Z,93.80
2019-04-04T03:50:10.480Z,59.03
2019-04-04T03:55:17.662Z,40.38
2019-04-04T04:00:27.953Z,105.97
2019-04-04T04:05:36.643Z,48.25
2019-04-04T04:10:44.178Z,50.30
2019-04-04T04:15:51.285Z,45.10
2019-04-04T04:20:58.365Z,35.10
2019-04-04T04:26:08.615Z,30.00
2019-04-04T04:31:15.441Z,44.58
2019-04-04T04:36:22.961Z,42.97
2019-04-04T04:41:30.153Z,38.80
2019-04-04T04:46:37.339Z,60.17
2019-04-04T04:51:44.482Z,32.43
2019-04-04T04:56:51.507Z,36.23
2019-04-04T05:01:58.735Z,35.97
2019-04-04T05:07:07.465Z,35.43
2019-04-04T05:12:15.517Z,50.35
2019-04-04T05:17:23.306Z,53.93
2019-04-04T05:22:30.685Z,51.53
2019-04-04T05:27:37.917Z,34.37
2019-04-04T05:32:44.998Z,30.93
2019-04-04T05:37:52.105Z,32.33
2019-04-04T05:42:59.849Z,34.20
2019-04-04T05:48:06.898Z,31.90
2019-04-04T05:53:13.966Z,27.77
2019-04-04T05:58:22.608Z,28.23
2019-04-04T06:03:30.069Z,23.20
2019-04-04T06:08:42.446Z,27.10
2019-04-04T06:13:46.057Z,28.77
2019-04-04T06:18:53.225Z,24.40
2019-04-04T06:24:00.297Z,30.33
2019-04-04T06:29:08.507Z,25.43
2019-04-04T06:34:15.644Z,28.23
2019-04-04T06:39:24.783Z,26.23
2019-04-04T06:44:31.570Z,38.10
2019-04-04T06:49:38.678Z,27.57
2019-04-04T06:54:46.078Z,35.77
2019-04-04T06:59:53.268Z,24.50
2019-04-04T07:05:00.514Z,27.40
2019-04-04T07:10:08.428Z,23.00
2019-04-04T07:15:16.206Z,22.00
2019-04-04T07:20:23.460Z,24.00
2019-04-04T07:25:30.779Z,23.53
2019-04-04T07:30:37.882Z,24.00
2019-04-04T07:35:44.957Z,25.67
2019-04-04T07:40:52.013Z,26.13
2019-04-04T07:46:01.308Z,23.23
2019-04-04T07:51:08.195Z,25.43
2019-04-04T07:56:15.362Z,28.42
2019-04-04T08:01:22.684Z,24.67
2019-04-04T08:06:30.063Z,22.27
2019-04-04T08:11:37.142Z,26.83
2019-04-04T08:16:44.244Z,22.70
2019-04-04T08:21:51.339Z,25.70
2019-04-04T08:26:58.452Z,29.70
2019-04-04T08:32:06.048Z,26.10
2019-04-04T08:37:13.674Z,26.00
2019-04-04T08:42:21.107Z,23.70
2019-04-04T08:47:29.280Z,24.47
2019-04-04T08:52:36.364Z,22.17
2019-04-04T08:57:43.771Z,22.77
2019-04-04T09:02:51.076Z,26.47
2019-04-04T09:07:58.678Z,26.03
2019-04-04T09:13:05.891Z,28.00
2019-04-04T09:18:13.698Z,23.63
2019-04-04T09:23:21.067Z,23.87
2019-04-04T09:28:28.433Z,30.57
2019-04-04T09:33:35.744Z,23.73
2019-04-04T09:38:43.006Z,26.27
2019-04-04T09:43:50.115Z,22.80
2019-04-04T09:48:57.270Z,22.97
2019-04-04T09:54:04.536Z,23.23
2019-04-04T09:59:12.102Z,26.15
2019-04-04T10:04:19.253Z,22.93
2019-04-04T10:09:26.469Z,29.07
2019-04-04T10:14:33.678Z,25.53
2019-04-04T10:19:40.748Z,28.07
2019-04-04T10:24:48.239Z,26.87
2019-04-04T10:29:55.488Z,27.13
2019-04-04T10:35:03.202Z,23.70
2019-04-04T10:40:10.608Z,25.13
2019-04-04T10:45:17.995Z,24.63
2019-04-04T10:50:26.527Z,20.00
2019-04-04T10:55:33.904Z,25.63
2019-04-04T11:00:41.106Z,26.33
2019-04-04T11:05:48.247Z,23.13
2019-04-04T11:10:55.420Z,23.37
2019-04-04T11:16:03.502Z,22.37
2019-04-04T11:21:11.003Z,21.80
2019-04-04T11:26:18.515Z,20.67
2019-04-04T11:31:25.759Z,24.67
2019-04-04T11:36:32.951Z,30.27
2019-04-04T11:41:40.217Z,23.60
2019-04-04T11:46:47.370Z,31.43
2019-04-04T11:51:55.215Z,22.23
2019-04-04T11:57:02.490Z,21.33
2019-04-04T12:02:09.667Z,22.77
2019-04-04T12:07:17.567Z,22.60
2019-04-04T12:12:24.835Z,21.60
2019-04-04T12:17:33.039Z,24.40
2019-04-04T12:22:40.207Z,20.07
2019-04-04T12:27:47.413Z,25.50
2019-04-04T12:32:54.635Z,22.07
2019-04-04T12:38:01.715Z,23.47
2019-04-04T12:43:09.005Z,19.10
2019-04-04T12:48:16.169Z,22.83
2019-04-04T12:53:23.407Z,22.95
2019-04-04T12:58:30.670Z,24.47
2019-04-04T13:03:37.781Z,19.52
2019-04-04T13:08:45.190Z,21.80
2019-04-04T13:13:52.648Z,23.35
2019-04-04T13:18:59.822Z,18.42
2019-04-04T13:24:07.422Z,24.65
2019-04-04T13:29:14.655Z,27.85
2019-04-04T13:34:21.787Z,32.20
2019-04-04T13:39:28.894Z,32.48
2019-04-04T13:44:36.147Z,31.42
2019-04-04T13:49:44.330Z,25.82
2019-04-04T13:54:55.641Z,23.10
2019-04-04T14:00:01.103Z,23.45
2019-04-04T14:05:12.511Z,35.83
2019-04-04T14:10:18.466Z,26.48
2019-04-04T14:15:25.566Z,23.42
2019-04-04T14:20:32.934Z,29.15
2019-04-04T14:25:40.128Z,26.68
2019-04-04T14:30:47.508Z,25.55
2019-04-04T14:35:54.751Z,22.25
2019-04-04T14:41:11.156Z,20.62
2019-04-04T14:46:11.020Z,28.38
2019-04-04T14:51:18.415Z,22.93
2019-04-04T14:56:25.377Z,23.62
2019-04-04T15:01:35.073Z,25.52
2019-04-04T15:06:42.599Z,24.52
2019-04-04T15:11:49.947Z,19.67
2019-04-04T15:16:57.054Z,19.37
2019-04-04T15:22:04.728Z,26.77
2019-04-04T15:27:12.035Z,26.57
2019-04-04T15:32:19.334Z,22.63
2019-04-04T15:37:26.507Z,20.67
2019-04-04T15:42:33.665Z,25.90
2019-04-04T15:47:41.051Z,26.00
2019-04-04T15:52:48.145Z,31.63
2019-04-04T15:57:55.222Z,32.23
2019-04-04T16:03:02.299Z,35.57
2019-04-04T16:11:51.911Z,28.00
2019-04-04T16:16:59.130Z,31.87
2019-04-04T16:22:06.875Z,31.13
2019-04-04T16:27:14.115Z,30.88
2019-04-04T16:32:21.327Z,31.87
2019-04-04T16:37:28.400Z,35.10
2019-04-04T16:42:35.486Z,28.87
2019-04-04T16:47:42.794Z,29.97
2019-04-04T16:52:50.345Z,26.43
2019-04-04T16:57:57.499Z,34.43
2019-04-04T17:03:04.548Z,31.53
2019-04-04T17:08:11.644Z,43.17
2019-04-04T17:13:19.108Z,39.00
2019-04-04T17:18:26.208Z,43.97
2019-04-04T17:23:33.290Z,48.57
2019-04-04T17:28:40.366Z,39.53
2019-04-04T17:33:47.461Z,51.80
2019-04-04T17:38:55.395Z,52.77
2019-04-04T17:44:04.300Z,49.70
2019-04-04T17:49:11.550Z,41.33
2019-04-04T17:54:18.776Z,45.57
2019-04-04T17:59:25.888Z,39.37
2019-04-04T18:04:34.765Z,38.77
2019-04-04T18:09:41.814Z,50.53
2019-04-04T18:14:50.980Z,43.47
2019-04-04T18:19:58.195Z,40.57
2019-04-04T18:25:06.532Z,47.27
2019-04-04T18:30:14.199Z,40.93
2019-04-04T18:35:22.147Z,57.55
2019-04-04T18:40:30.340Z,56.60
2019-04-04T18:45:37.804Z,63.23
2019-04-04T18:50:45.004Z,60.13
2019-04-04T18:55:52.110Z,62.50
2019-04-04T19:00:59.330Z,47.20
2019-04-04T19:06:06.534Z,43.10
2019-04-04T19:11:14.237Z,45.17
2019-04-04T19:16:23.124Z,40.67
2019-04-04T19:21:30.400Z,34.93
2019-04-04T19:26:37.987Z,31.37
2019-04-04T19:31:45.079Z,38.90
2019-04-04T19:36:53.052Z,30.40
2019-04-04T19:42:00.084Z,26.67
2019-04-04T19:47:07.276Z,30.03
2019-04-04T19:52:14.334Z,29.37
2019-04-04T19:57:21.623Z,30.05
2019-04-04T20:02:29.130Z,25.92
2019-04-04T20:07:36.317Z,26.70
2019-04-04T20:12:43.977Z,28.83
2019-04-04T20:17:51.111Z,29.17
2019-04-04T20:22:58.283Z,26.57
2019-04-04T20:28:05.716Z,27.90
2019-04-04T20:33:12.891Z,25.63
2019-04-04T20:38:19.998Z,31.82
2019-04-04T20:43:27.123Z,42.97
2019-04-04T20:48:34.575Z,40.87
2019-04-04T20:53:41.744Z,69.00
2019-04-04T20:58:48.875Z,84.57
2019-04-04T21:03:56.020Z,102.93
2019-04-04T21:09:04.710Z,115.10
2019-04-04T21:14:11.990Z,106.03
2019-04-04T21:19:19.247Z,79.17
2019-04-04T21:24:26.306Z,67.60
2019-04-04T21:29:34.385Z,64.87
2019-04-04T21:34:42.480Z,52.00
2019-04-04T21:39:49.523Z,53.97
2019-04-04T21:44:56.674Z,76.53
2019-04-04T21:50:03.733Z,74.83
2019-04-04T21:55:10.883Z,66.73
2019-04-04T22:00:19.536Z,62.83
2019-04-04T22:05:28.135Z,60.00
2019-04-04T22:10:35.446Z,71.40
2019-04-04T22:15:42.517Z,62.67
2019-04-04T22:20:49.718Z,56.50
2019-04-04T22:25:56.761Z,44.87
2019-04-04T22:31:03.832Z,45.30
2019-04-04T22:36:11.082Z,48.53
2019-04-04T22:41:18.179Z,47.27
2019-04-04T22:46:25.338Z,45.27
2019-04-04T22:51:32.367Z,35.07
2019-04-04T22:56:39.402Z,34.10
2019-04-04T23:01:47.113Z,35.87
2019-04-04T23:06:54.239Z,46.87
2019-04-04T23:12:01.914Z,46.83
2019-04-04T23:17:09.129Z,37.27
2019-04-04T23:22:16.176Z,43.02
2019-04-04T23:27:23.202Z,45.40
2019-04-04T23:32:30.327Z,40.37
2019-04-04T23:37:37.374Z,43.30
2019-04-04T23:42:44.614Z,48.37
2019-04-04T23:47:51.657Z,37.00
2019-04-04T23:52:58.718Z,34.07
2019-04-04T23:58:07.714Z,36.43
